createdAt,value
2023-01-18T00:01:01.791Z,0.20
2023-01-18T00:03:28.903Z,0.30
2023-01-18T00:05:56.157Z,0.20
2023-01-18T00:08:23.107Z,0.30
2023-01-18T00:10:50.355Z,0.40
2023-01-18T00:13:17.287Z,0.40
2023-01-18T00:15:44.567Z,0.40
2023-01-18T00:18:11.641Z,0.30
2023-01-18T00:20:38.896Z,0.40
2023-01-18T00:23:05.802Z,0.50
2023-01-18T00:25:33.187Z,0.50
2023-01-18T00:28:00.207Z,0.50
2023-01-18T00:30:28.618Z,0.50
2023-01-18T00:32:58.272Z,0.50
2023-01-18T00:35:26.629Z,0.50
2023-01-18T00:37:54.342Z,0.70
2023-01-18T00:40:22.815Z,0.80
2023-01-18T00:43:08.535Z,1.00
2023-01-18T00:45:35.908Z,1.00
2023-01-18T00:48:03.685Z,1.00
2023-01-18T00:50:30.943Z,1.00
2023-01-18T00:53:00.175Z,1.00
2023-01-18T00:55:27.869Z,1.00
2023-01-18T00:57:55.151Z,1.00
2023-01-18T01:00:23.732Z,1.10
2023-01-18T01:02:51.763Z,1.20
2023-01-18T01:05:40.632Z,1.20
2023-01-18T01:08:07.809Z,1.20
2023-01-18T01:10:35.707Z,1.30
2023-01-18T01:13:21.789Z,1.20
2023-01-18T01:16:07.735Z,1.10
2023-01-18T01:18:53.296Z,1.10
2023-01-18T01:21:39.247Z,1.20
2023-01-18T01:24:24.979Z,1.30
2023-01-18T01:26:52.299Z,1.50
2023-01-18T01:29:19.213Z,1.50
2023-01-18T01:31:46.428Z,1.60
2023-01-18T01:34:13.576Z,1.60
2023-01-18T01:36:40.871Z,1.60
2023-01-18T01:39:10.904Z,1.50
2023-01-18T01:41:38.725Z,1.50
2023-01-18T01:44:17.950Z,1.50
2023-01-18T01:46:56.058Z,1.50
2023-01-18T01:49:52.652Z,1.50
2023-01-18T01:52:28.673Z,1.60
2023-01-18T01:55:28.452Z,1.60
2023-01-18T01:58:21.045Z,1.60
2023-01-18T02:00:48.251Z,1.60
2023-01-18T02:03:20.535Z,1.60
2023-01-18T02:05:51.088Z,1.60
2023-01-18T02:08:22.490Z,1.50
2023-01-18T02:10:50.568Z,1.50
2023-01-18T02:13:19.489Z,1.60
2023-01-18T02:16:13.901Z,1.70
2023-01-18T02:18:54.645Z,1.80
2023-01-18T02:21:39.502Z,1.80
2023-01-18T02:24:18.642Z,1.80
2023-01-18T02:27:20.526Z,1.70
2023-01-18T02:30:16.132Z,1.70
2023-01-18T02:33:15.563Z,1.70
2023-01-18T02:35:47.167Z,1.70
2023-01-18T02:38:21.610Z,1.70
2023-01-18T02:41:00.544Z,1.70
2023-01-18T02:43:47.057Z,1.70
2023-01-18T02:46:35.734Z,1.80
2023-01-18T02:49:10.840Z,1.70
2023-01-18T02:51:38.646Z,1.80
2023-01-18T02:54:09.750Z,1.80
2023-01-18T02:56:47.515Z,1.90
2023-01-18T02:59:28.614Z,1.80
2023-01-18T03:01:57.412Z,1.90
2023-01-18T03:04:33.530Z,2.00
2023-01-18T03:07:24.321Z,2.10
2023-01-18T03:09:51.978Z,2.00
2023-01-18T03:12:48.027Z,2.00
2023-01-18T03:15:41.719Z,2.00
2023-01-18T03:18:38.379Z,2.00
2023-01-18T03:21:08.460Z,2.10
2023-01-18T03:23:40.136Z,2.20
2023-01-18T03:26:17.306Z,2.20
2023-01-18T03:29:12.427Z,2.30
2023-01-18T03:32:06.266Z,2.30
2023-01-18T03:34:46.510Z,2.30
2023-01-18T03:37:28.710Z,2.30
2023-01-18T03:40:03.612Z,2.30
2023-01-18T03:42:45.843Z,2.40
2023-01-18T03:45:20.702Z,2.40
2023-01-18T03:47:50.321Z,2.40
2023-01-18T03:50:18.211Z,2.40
2023-01-18T03:52:48.768Z,2.40
2023-01-18T03:55:24.230Z,2.40
2023-01-18T03:58:09.528Z,2.50
2023-01-18T04:00:40.790Z,2.50
2023-01-18T04:03:08.251Z,2.50
2023-01-18T04:05:36.126Z,2.50
2023-01-18T04:08:03.238Z,2.50
2023-01-18T04:10:30.507Z,2.50
2023-01-18T04:12:58.036Z,2.50
2023-01-18T04:15:25.386Z,2.60
2023-01-18T04:17:55.931Z,2.60
2023-01-18T04:20:23.792Z,2.60
2023-01-18T04:22:54.801Z,2.70
2023-01-18T04:25:22.548Z,2.60
2023-01-18T04:27:49.488Z,2.70
2023-01-18T04:30:17.122Z,2.70
2023-01-18T04:32:46.224Z,2.70
2023-01-18T04:35:14.200Z,2.70
2023-01-18T04:37:41.431Z,2.60
2023-01-18T04:40:09.455Z,2.60
2023-01-18T04:42:36.416Z,2.60
2023-01-18T04:45:03.768Z,2.70
2023-01-18T04:47:30.698Z,2.70
2023-01-18T04:49:58.029Z,2.70
2023-01-18T04:52:26.801Z,2.70
2023-01-18T04:54:54.145Z,2.70
2023-01-18T04:57:21.095Z,2.60
2023-01-18T04:59:48.271Z,2.70
2023-01-18T05:02:15.453Z,2.70
2023-01-18T05:04:43.825Z,2.70
2023-01-18T05:07:11.651Z,2.70
2023-01-18T05:09:38.916Z,2.70
2023-01-18T05:12:06.011Z,2.80
2023-01-18T05:14:33.602Z,2.80
2023-01-18T05:17:00.704Z,2.90
2023-01-18T05:19:30.502Z,2.90
2023-01-18T05:21:57.517Z,2.90
2023-01-18T05:24:24.926Z,2.90
2023-01-18T05:26:51.848Z,3.00
2023-01-18T05:29:19.067Z,3.00
2023-01-18T05:31:46.148Z,3.00
2023-01-18T05:34:13.412Z,3.00
2023-01-18T05:36:40.408Z,2.90
2023-01-18T05:39:09.306Z,2.90
2023-01-18T05:41:36.299Z,2.90
2023-01-18T05:44:03.815Z,3.00
2023-01-18T05:46:30.824Z,2.90
2023-01-18T05:48:58.927Z,2.90
2023-01-18T05:51:25.993Z,2.90
2023-01-18T05:53:53.275Z,2.90
2023-01-18T05:56:20.229Z,2.90
2023-01-18T05:58:47.464Z,2.90
2023-01-18T06:01:14.554Z,2.90
2023-01-18T06:03:41.979Z,2.80
2023-01-18T06:06:08.922Z,2.90
2023-01-18T06:08:36.406Z,2.90
2023-01-18T06:11:04.557Z,2.90
2023-01-18T06:13:32.787Z,2.90
2023-01-18T06:16:00.965Z,2.90
2023-01-18T06:18:32.805Z,2.80
2023-01-18T06:21:01.910Z,2.90
2023-01-18T06:23:30.417Z,2.80
2023-01-18T06:25:57.823Z,2.90
2023-01-18T06:28:25.136Z,2.90
2023-01-18T06:30:55.555Z,2.80
2023-01-18T06:33:24.303Z,2.80
2023-01-18T06:35:52.274Z,2.80
2023-01-18T06:38:20.707Z,2.80
2023-01-18T06:40:47.673Z,2.80
2023-01-18T06:43:16.021Z,2.70
2023-01-18T06:45:43.081Z,2.70
2023-01-18T06:48:10.377Z,2.70
2023-01-18T06:50:37.362Z,2.70
2023-01-18T06:53:04.630Z,2.70
2023-01-18T06:55:31.594Z,2.80
2023-01-18T06:57:58.810Z,2.80
2023-01-18T07:00:25.873Z,2.90
2023-01-18T07:02:53.217Z,2.80
2023-01-18T07:05:20.561Z,2.80
2023-01-18T07:07:47.930Z,2.90
2023-01-18T07:10:16.636Z,2.90
2023-01-18T07:12:48.575Z,2.80
2023-01-18T07:15:21.940Z,2.90
2023-01-18T07:17:50.867Z,2.90
2023-01-18T07:20:19.905Z,2.90
2023-01-18T07:22:51.965Z,3.00
2023-01-18T07:25:20.750Z,3.00
2023-01-18T07:27:49.153Z,3.00
2023-01-18T07:30:16.661Z,3.00
2023-01-18T07:32:52.097Z,3.00
2023-01-18T07:35:22.228Z,3.00
2023-01-18T07:37:52.306Z,3.00
2023-01-18T07:40:21.442Z,3.00
2023-01-18T07:42:50.052Z,3.00
2023-01-18T07:45:17.183Z,2.90
2023-01-18T07:47:46.282Z,3.00
2023-01-18T07:50:14.394Z,3.10
2023-01-18T07:52:42.046Z,3.00
2023-01-18T07:55:09.520Z,3.00
2023-01-18T07:57:36.825Z,3.10
2023-01-18T08:00:07.178Z,3.00
2023-01-18T08:02:35.304Z,3.00
2023-01-18T08:05:03.750Z,3.00
2023-01-18T08:07:33.925Z,3.00
2023-01-18T08:10:00.979Z,3.10
2023-01-18T08:12:28.490Z,3.10
2023-01-18T08:14:55.503Z,3.10
2023-01-18T08:17:22.766Z,3.10
2023-01-18T08:19:49.742Z,3.10
2023-01-18T08:22:16.955Z,3.10
2023-01-18T08:24:43.985Z,3.10
2023-01-18T08:27:11.262Z,3.10
2023-01-18T08:29:38.238Z,3.10
2023-01-18T08:32:05.587Z,3.10
2023-01-18T08:34:32.584Z,3.10
2023-01-18T08:36:59.832Z,3.10
2023-01-18T08:39:26.897Z,3.10
2023-01-18T08:41:54.114Z,3.10
2023-01-18T08:44:21.131Z,3.10
2023-01-18T08:46:48.380Z,3.20
2023-01-18T08:49:16.215Z,3.20
2023-01-18T08:51:43.486Z,3.10
2023-01-18T08:54:10.426Z,3.10
2023-01-18T08:56:37.724Z,3.20
2023-01-18T08:59:08.812Z,3.20
2023-01-18T09:01:36.269Z,3.30
2023-01-18T09:04:03.394Z,3.30
2023-01-18T09:06:32.317Z,3.30
2023-01-18T09:08:59.918Z,3.30
2023-01-18T09:11:27.208Z,3.30
2023-01-18T09:14:00.804Z,3.30
2023-01-18T09:16:30.012Z,3.30
2023-01-18T09:18:58.414Z,3.30
2023-01-18T09:21:28.074Z,3.40
2023-01-18T09:23:55.179Z,3.40
2023-01-18T09:26:22.560Z,3.40
2023-01-18T09:28:52.566Z,3.40
2023-01-18T09:31:26.584Z,3.50
2023-01-18T09:33:57.386Z,3.50
2023-01-18T09:36:28.149Z,3.50
2023-01-18T09:38:56.068Z,3.50
2023-01-18T09:41:35.302Z,3.50
2023-01-18T09:44:29.986Z,3.40
2023-01-18T09:47:07.190Z,3.40
2023-01-18T09:49:52.316Z,3.40
2023-01-18T09:52:43.500Z,3.30
2023-01-18T09:55:22.595Z,3.30
2023-01-18T09:58:01.613Z,3.20
2023-01-18T10:00:32.246Z,3.20
2023-01-18T10:03:14.402Z,3.20
2023-01-18T10:06:08.626Z,3.30
2023-01-18T10:08:50.047Z,3.30
2023-01-18T10:11:30.231Z,3.30
2023-01-18T10:14:11.546Z,3.40
2023-01-18T10:16:38.837Z,3.30
2023-01-18T10:19:16.523Z,3.30
2023-01-18T10:21:59.866Z,3.20
2023-01-18T10:24:46.503Z,3.20
2023-01-18T10:27:37.964Z,3.30
2023-01-18T10:30:11.229Z,3.30
2023-01-18T10:32:39.488Z,3.30
2023-01-18T10:35:23.013Z,3.30
2023-01-18T10:37:50.808Z,3.30
2023-01-18T10:40:18.127Z,3.30
2023-01-18T10:42:51.132Z,3.30
2023-01-18T10:45:22.686Z,3.30
2023-01-18T10:47:53.469Z,3.30
2023-01-18T10:50:24.681Z,3.30
2023-01-18T10:52:51.693Z,3.30
2023-01-18T10:55:20.153Z,3.30
2023-01-18T10:57:53.539Z,3.30
2023-01-18T11:00:33.704Z,3.40
2023-01-18T11:03:02.965Z,3.30
2023-01-18T11:05:32.706Z,3.30
2023-01-18T11:08:18.409Z,3.30
2023-01-18T11:10:46.048Z,3.30
2023-01-18T11:13:40.083Z,3.30
2023-01-18T11:16:17.611Z,3.40
2023-01-18T11:19:20.353Z,3.30
2023-01-18T11:21:51.967Z,3.30
2023-01-18T11:24:24.887Z,3.30
2023-01-18T11:26:56.572Z,3.30
2023-01-18T11:29:45.178Z,3.40
2023-01-18T11:32:25.206Z,3.40
2023-01-18T11:34:54.451Z,3.30
2023-01-18T11:37:38.383Z,3.40
2023-01-18T11:40:26.750Z,3.40
2023-01-18T11:42:59.663Z,3.30
2023-01-18T11:45:36.467Z,3.30
2023-01-18T11:48:13.009Z,3.30
2023-01-18T11:51:22.640Z,3.30
2023-01-18T11:54:39.799Z,3.30
2023-01-18T11:57:10.359Z,3.20
2023-01-18T11:59:45.643Z,3.20
2023-01-18T12:02:30.956Z,3.20
2023-01-18T12:05:01.211Z,3.20
2023-01-18T12:07:54.587Z,3.20
2023-01-18T12:10:27.704Z,3.20
2023-01-18T12:13:16.751Z,3.30
2023-01-18T12:16:12.647Z,3.20
2023-01-18T12:18:51.294Z,3.20
2023-01-18T12:21:49.687Z,3.20
2023-01-18T12:24:30.064Z,3.20
2023-01-18T12:27:21.203Z,3.20
2023-01-18T12:29:57.472Z,3.10
2023-01-18T12:32:42.577Z,3.20
2023-01-18T12:35:32.758Z,3.10
2023-01-18T12:38:28.419Z,3.10
2023-01-18T12:41:37.115Z,3.10
2023-01-18T12:44:30.605Z,3.10
2023-01-18T12:46:59.362Z,3.10
2023-01-18T12:49:29.373Z,3.10
2023-01-18T12:52:17.361Z,3.10
2023-01-18T12:54:51.986Z,3.10
2023-01-18T12:57:20.693Z,3.10
2023-01-18T12:59:50.910Z,3.10
2023-01-18T13:02:37.374Z,3.00
2023-01-18T13:05:20.033Z,3.00
2023-01-18T13:07:54.343Z,3.00
2023-01-18T13:10:24.473Z,3.00
2023-01-18T13:12:53.325Z,3.00
2023-01-18T13:15:35.254Z,3.00
2023-01-18T13:18:10.456Z,3.00
2023-01-18T13:21:02.908Z,3.00
2023-01-18T13:23:49.459Z,3.00
2023-01-18T13:26:37.499Z,3.00
2023-01-18T13:29:10.381Z,2.90
2023-01-18T13:31:38.311Z,2.80
2023-01-18T13:34:17.580Z,2.50
2023-01-18T13:36:46.572Z,2.40
2023-01-18T13:39:19.227Z,2.40
2023-01-18T13:42:05.338Z,2.40
2023-01-18T13:44:42.816Z,2.40
2023-01-18T13:47:45.935Z,2.40
2023-01-18T13:50:39.494Z,2.40
2023-01-18T13:53:15.710Z,2.40
2023-01-18T13:56:23.258Z,2.40
2023-01-18T13:59:20.541Z,2.40
2023-01-18T14:01:48.999Z,2.40
2023-01-18T14:04:32.320Z,2.40
2023-01-18T14:07:03.388Z,2.50
2023-01-18T14:09:43.360Z,2.50
2023-01-18T14:12:11.903Z,2.40
2023-01-18T14:14:58.942Z,2.40
2023-01-18T14:17:26.780Z,2.40
2023-01-18T14:20:00.269Z,2.40
2023-01-18T14:23:07.043Z,2.50
2023-01-18T14:25:34.436Z,2.40
2023-01-18T14:28:09.130Z,2.40
2023-01-18T14:30:38.773Z,2.30
2023-01-18T14:33:32.787Z,2.40
2023-01-18T14:36:01.745Z,2.50
2023-01-18T14:38:30.168Z,2.30
2023-01-18T14:41:05.412Z,2.30
2023-01-18T14:43:41.716Z,2.20
2023-01-18T14:46:15.933Z,2.10
2023-01-18T14:48:53.362Z,2.10
2023-01-18T14:51:23.482Z,2.20
2023-01-18T14:53:55.156Z,2.10
2023-01-18T14:56:25.533Z,2.10
2023-01-18T14:59:13.698Z,2.20
2023-01-18T15:01:43.900Z,2.20
2023-01-18T15:04:27.341Z,2.20
2023-01-18T15:06:57.996Z,2.20
2023-01-18T15:09:28.281Z,2.20
2023-01-18T15:11:57.456Z,2.10
2023-01-18T15:14:31.636Z,2.00
2023-01-18T15:17:01.825Z,2.20
2023-01-18T15:19:41.247Z,2.10
2023-01-18T15:22:13.597Z,2.00
2023-01-18T15:24:43.303Z,2.00
2023-01-18T15:27:14.114Z,2.00
2023-01-18T15:29:46.108Z,2.00
2023-01-18T15:32:17.527Z,1.90
2023-01-18T15:34:46.691Z,1.90
2023-01-18T15:37:26.838Z,2.00
2023-01-18T15:40:04.428Z,1.90
2023-01-18T15:42:40.079Z,1.90
2023-01-18T15:45:18.943Z,1.90
2023-01-18T15:47:53.171Z,1.90
2023-01-18T15:50:22.753Z,1.90
2023-01-18T15:53:02.054Z,2.00
2023-01-18T15:55:31.782Z,2.00
2023-01-18T15:58:03.399Z,2.00
2023-01-18T16:00:43.967Z,2.00
2023-01-18T16:03:26.664Z,2.00
2023-01-18T16:05:57.738Z,2.00
2023-01-18T16:08:25.581Z,2.00
2023-01-18T16:10:57.280Z,1.90
2023-01-18T16:13:36.687Z,2.00
2023-01-18T16:16:27.001Z,2.00
2023-01-18T16:19:02.175Z,1.90
2023-01-18T16:21:41.764Z,2.00
2023-01-18T16:24:47.197Z,1.90
2023-01-18T16:27:20.153Z,2.00
2023-01-18T16:29:57.299Z,1.90
2023-01-18T16:32:30.022Z,1.90
2023-01-18T16:35:14.059Z,1.90
2023-01-18T16:37:42.029Z,2.00
2023-01-18T16:40:12.447Z,1.90
2023-01-18T16:42:59.761Z,2.00
2023-01-18T16:45:33.650Z,1.90
2023-01-18T16:48:01.253Z,1.90
2023-01-18T16:50:29.093Z,1.90
2023-01-18T16:52:56.171Z,1.80
2023-01-18T16:55:23.726Z,1.90
2023-01-18T16:57:51.806Z,2.00
2023-01-18T17:00:30.829Z,1.90
2023-01-18T17:02:57.934Z,1.90
2023-01-18T17:05:25.517Z,2.00
2023-01-18T17:07:52.810Z,1.90
2023-01-18T17:10:39.349Z,1.90
2023-01-18T17:13:07.179Z,1.80
2023-01-18T17:15:34.922Z,1.80
2023-01-18T17:18:03.125Z,1.80
2023-01-18T17:20:31.540Z,1.90
2023-01-18T17:22:59.105Z,1.90
2023-01-18T17:25:26.802Z,1.90
2023-01-18T17:27:56.070Z,1.80
2023-01-18T17:30:23.475Z,1.80
2023-01-18T17:32:50.598Z,1.80
2023-01-18T17:35:21.929Z,1.80
2023-01-18T17:37:54.491Z,1.80
2023-01-18T17:40:39.313Z,1.80
2023-01-18T17:43:07.992Z,1.80
2023-01-18T17:45:35.296Z,1.80
2023-01-18T17:48:02.267Z,1.80
2023-01-18T17:50:29.580Z,1.80
2023-01-18T17:52:56.812Z,1.90
2023-01-18T17:55:30.515Z,1.80
2023-01-18T17:57:57.682Z,1.80
2023-01-18T18:00:25.077Z,1.80
2023-01-18T18:02:53.648Z,1.80
2023-01-18T18:05:20.907Z,1.80
2023-01-18T18:07:49.565Z,1.90
2023-01-18T18:10:17.301Z,1.90
2023-01-18T18:12:44.368Z,1.80
2023-01-18T18:15:11.847Z,2.00
2023-01-18T18:17:38.766Z,1.90
2023-01-18T18:20:10.790Z,1.80
2023-01-18T18:22:38.478Z,1.90
2023-01-18T18:25:07.295Z,1.80
2023-01-18T18:27:45.448Z,1.80
2023-01-18T18:30:13.427Z,1.90
2023-01-18T18:32:40.368Z,1.90
2023-01-18T18:35:23.103Z,1.90
2023-01-18T18:37:51.809Z,1.80
2023-01-18T18:40:19.337Z,1.80
2023-01-18T18:42:56.461Z,1.90
2023-01-18T18:45:29.712Z,1.90
2023-01-18T18:47:56.659Z,1.90
2023-01-18T18:50:23.947Z,1.90
2023-01-18T18:52:50.899Z,1.80
2023-01-18T18:55:18.506Z,1.90
2023-01-18T18:57:45.717Z,1.90
2023-01-18T19:00:13.876Z,1.80
2023-01-18T19:02:40.898Z,1.80
2023-01-18T19:05:08.696Z,1.80
2023-01-18T19:07:35.955Z,1.80
2023-01-18T19:10:05.025Z,1.80
2023-01-18T19:12:32.308Z,1.80
2023-01-18T19:14:59.662Z,1.80
2023-01-18T19:17:30.841Z,1.90
2023-01-18T19:19:58.767Z,1.90
2023-01-18T19:22:26.295Z,1.90
2023-01-18T19:24:53.550Z,1.90
2023-01-18T19:27:21.853Z,2.00
2023-01-18T19:29:49.098Z,1.90
2023-01-18T19:32:16.254Z,2.00
2023-01-18T19:34:43.568Z,1.90
2023-01-18T19:37:10.537Z,1.90
2023-01-18T19:39:38.202Z,2.00
2023-01-18T19:42:06.892Z,1.90
2023-01-18T19:44:34.319Z,1.90
2023-01-18T19:47:01.534Z,2.00
2023-01-18T19:49:29.090Z,1.90
2023-01-18T19:51:56.081Z,2.00
2023-01-18T19:54:23.451Z,2.00
2023-01-18T19:56:51.417Z,2.00
2023-01-18T19:59:18.756Z,2.00
2023-01-18T20:01:46.361Z,2.00
2023-01-18T20:04:13.827Z,2.00
2023-01-18T20:06:43.350Z,1.90
2023-01-18T20:09:19.635Z,1.90
2023-01-18T20:11:48.344Z,2.00
2023-01-18T20:14:15.714Z,2.00
2023-01-18T20:16:44.918Z,2.00
2023-01-18T20:19:14.818Z,2.10
2023-01-18T20:21:41.919Z,2.10
2023-01-18T20:24:09.826Z,2.00
2023-01-18T20:26:41.774Z,2.00
2023-01-18T20:29:09.675Z,2.00
2023-01-18T20:31:38.359Z,2.10
2023-01-18T20:34:06.792Z,2.10
2023-01-18T20:36:37.637Z,2.10
2023-01-18T20:39:05.645Z,2.10
2023-01-18T20:41:32.702Z,2.00
2023-01-18T20:44:00.005Z,2.10
2023-01-18T20:46:26.995Z,2.00
2023-01-18T20:48:54.240Z,2.10
2023-01-18T20:51:21.251Z,2.10
2023-01-18T20:53:48.584Z,2.10
2023-01-18T20:56:28.355Z,2.10
2023-01-18T20:58:58.097Z,2.10
2023-01-18T21:01:31.559Z,2.30
2023-01-18T21:04:00.451Z,2.30
2023-01-18T21:06:27.452Z,2.30
2023-01-18T21:08:56.503Z,2.20
2023-01-18T21:11:25.457Z,2.20
2023-01-18T21:13:54.119Z,2.20
2023-01-18T21:16:22.079Z,2.10
2023-01-18T21:18:52.710Z,2.10
2023-01-18T21:21:20.853Z,2.10
2023-01-18T21:23:48.141Z,2.20
2023-01-18T21:26:15.421Z,2.20
2023-01-18T21:28:42.703Z,2.20
2023-01-18T21:31:09.672Z,2.10
2023-01-18T21:33:37.539Z,2.20
2023-01-18T21:36:06.525Z,2.30
2023-01-18T21:38:33.846Z,2.30
2023-01-18T21:41:21.091Z,2.20
2023-01-18T21:44:07.138Z,2.10
2023-01-18T21:46:34.450Z,2.10
2023-01-18T21:49:03.143Z,2.30
2023-01-18T21:51:49.416Z,2.30
2023-01-18T21:54:17.073Z,2.30
2023-01-18T21:56:45.422Z,2.30
2023-01-18T21:59:13.746Z,2.20
2023-01-18T22:01:43.358Z,2.20
2023-01-18T22:04:31.400Z,2.20
2023-01-18T22:06:59.503Z,2.20
2023-01-18T22:09:28.144Z,2.20
2023-01-18T22:11:59.637Z,2.20
2023-01-18T22:14:27.051Z,2.20
2023-01-18T22:16:54.119Z,2.30
2023-01-18T22:19:21.357Z,2.30
2023-01-18T22:21:49.388Z,2.20
2023-01-18T22:24:17.988Z,2.30
2023-01-18T22:26:45.985Z,2.30
2023-01-18T22:29:13.858Z,2.40
2023-01-18T22:31:41.279Z,2.40
2023-01-18T22:34:09.683Z,2.30
2023-01-18T22:36:36.776Z,2.20
2023-01-18T22:39:04.094Z,2.30
2023-01-18T22:41:31.181Z,2.30
2023-01-18T22:43:58.432Z,2.30
2023-01-18T22:46:25.826Z,2.30
2023-01-18T22:48:53.057Z,2.30
2023-01-18T22:51:24.021Z,2.30
2023-01-18T22:53:52.090Z,2.30
2023-01-18T22:56:20.812Z,2.50
2023-01-18T22:58:49.010Z,2.40
2023-01-18T23:01:21.230Z,2.50
2023-01-18T23:03:53.064Z,2.50
2023-01-18T23:06:21.009Z,2.50
2023-01-18T23:08:48.862Z,2.40
2023-01-18T23:11:21.985Z,2.30
2023-01-18T23:14:11.171Z,2.30
2023-01-18T23:16:56.967Z,2.30
2023-01-18T23:19:25.088Z,2.30
2023-01-18T23:21:53.249Z,2.40
2023-01-18T23:24:21.313Z,2.40
2023-01-18T23:26:49.107Z,2.30
2023-01-18T23:29:16.904Z,2.30
2023-01-18T23:31:43.855Z,2.40
2023-01-18T23:34:11.220Z,2.40
2023-01-18T23:36:38.825Z,2.40
2023-01-18T23:39:24.593Z,2.30
2023-01-18T23:42:09.989Z,2.20
2023-01-18T23:44:56.001Z,2.30
2023-01-18T23:47:41.779Z,2.30
2023-01-18T23:50:28.318Z,2.30
2023-01-18T23:53:14.133Z,2.30
2023-01-18T23:55:41.524Z,2.40
2023-01-18T23:58:08.475Z,2.30
